sensor_id;sensor_type;location;lat;lon;timestamp;pressure;altitude;pressure_sealevel;temperature;humidity
55990;BME280;41875;55.806;38.082;2022-12-07T00:01:46;100585.03;;;-7.77;50.19
55990;BME280;41875;55.806;38.082;2022-12-07T00:04:17;100577.25;;;-7.70;49.87
55990;BME280;41875;55.806;38.082;2022-12-07T00:06:50;100586.75;;;-7.76;50.55
55990;BME280;41875;55.806;38.082;2022-12-07T00:09:22;100569.88;;;-8.02;50.46
55990;BME280;41875;55.806;38.082;2022-12-07T00:11:51;100578.59;;;-8.22;50.92
55990;BME280;41875;55.806;38.082;2022-12-07T00:14:20;100575.56;;;-7.74;50.29
55990;BME280;41875;55.806;38.082;2022-12-07T00:16:50;100573.97;;;-7.86;50.24
55990;BME280;41875;55.806;38.082;2022-12-07T00:19:20;100577.66;;;-8.15;50.87
55990;BME280;41875;55.806;38.082;2022-12-07T00:21:49;100572.28;;;-7.88;49.93
55990;BME280;41875;55.806;38.082;2022-12-07T00:24:17;100569.78;;;-7.96;50.32
55990;BME280;41875;55.806;38.082;2022-12-07T00:26:46;100574.16;;;-8.04;50.36
55990;BME280;41875;55.806;38.082;2022-12-07T00:29:23;100571.25;;;-7.72;49.94
55990;BME280;41875;55.806;38.082;2022-12-07T00:31:53;100579.50;;;-8.24;50.62
55990;BME280;41875;55.806;38.082;2022-12-07T00:34:22;100581.31;;;-8.37;51.04
55990;BME280;41875;55.806;38.082;2022-12-07T00:36:52;100571.44;;;-7.89;49.92
55990;BME280;41875;55.806;38.082;2022-12-07T00:39:20;100565.59;;;-8.05;50.32
55990;BME280;41875;55.806;38.082;2022-12-07T00:41:50;100572.59;;;-8.22;50.59
55990;BME280;41875;55.806;38.082;2022-12-07T00:44:20;100579.53;;;-8.28;51.00
55990;BME280;41875;55.806;38.082;2022-12-07T00:46:49;100575.06;;;-8.12;50.52
55990;BME280;41875;55.806;38.082;2022-12-07T00:49:24;100578.75;;;-8.37;51.05
55990;BME280;41875;55.806;38.082;2022-12-07T00:51:52;100584.97;;;-8.63;51.31
55990;BME280;41875;55.806;38.082;2022-12-07T00:54:22;100572.13;;;-8.63;51.46
55990;BME280;41875;55.806;38.082;2022-12-07T00:56:51;100587.66;;;-8.85;51.72
55990;BME280;41875;55.806;38.082;2022-12-07T00:59:20;100576.16;;;-8.37;51.40
55990;BME280;41875;55.806;38.082;2022-12-07T01:01:48;100571.19;;;-8.54;51.24
55990;BME280;41875;55.806;38.082;2022-12-07T01:04:17;100577.16;;;-8.49;51.21
55990;BME280;41875;55.806;38.082;2022-12-07T01:06:47;100566.03;;;-8.53;50.94
55990;BME280;41875;55.806;38.082;2022-12-07T01:09:19;100579.78;;;-8.57;51.61
55990;BME280;41875;55.806;38.082;2022-12-07T01:11:47;100577.38;;;-8.83;51.88
55990;BME280;41875;55.806;38.082;2022-12-07T01:14:18;100582.56;;;-8.91;52.05
55990;BME280;41875;55.806;38.082;2022-12-07T01:16:46;100581.88;;;-9.21;53.42
55990;BME280;41875;55.806;38.082;2022-12-07T01:19:15;100584.22;;;-8.82;52.34
55990;BME280;41875;55.806;38.082;2022-12-07T01:21:43;100582.66;;;-9.02;52.34
55990;BME280;41875;55.806;38.082;2022-12-07T01:24:13;100577.28;;;-8.63;51.80
55990;BME280;41875;55.806;38.082;2022-12-07T01:26:42;100587.63;;;-8.77;52.32
55990;BME280;41875;55.806;38.082;2022-12-07T01:29:10;100580.84;;;-8.88;52.59
55990;BME280;41875;55.806;38.082;2022-12-07T01:31:38;100582.50;;;-8.79;52.41
55990;BME280;41875;55.806;38.082;2022-12-07T01:34:08;100587.66;;;-8.83;52.35
55990;BME280;41875;55.806;38.082;2022-12-07T01:36:36;100581.81;;;-9.09;52.48
55990;BME280;41875;55.806;38.082;2022-12-07T01:39:06;100580.97;;;-9.11;52.83
55990;BME280;41875;55.806;38.082;2022-12-07T01:41:38;100570.72;;;-9.14;52.85
55990;BME280;41875;55.806;38.082;2022-12-07T01:44:13;100576.75;;;-9.20;52.64
55990;BME280;41875;55.806;38.082;2022-12-07T01:46:44;100574.03;;;-8.92;52.02
55990;BME280;41875;55.806;38.082;2022-12-07T01:49:18;100575.78;;;-9.05;51.87
55990;BME280;41875;55.806;38.082;2022-12-07T01:51:51;100568.94;;;-9.02;52.33
55990;BME280;41875;55.806;38.082;2022-12-07T01:54:20;100568.09;;;-9.00;52.21
55990;BME280;41875;55.806;38.082;2022-12-07T01:56:53;100571.50;;;-8.99;52.13
55990;BME280;41875;55.806;38.082;2022-12-07T01:59:24;100570.75;;;-9.15;52.57
55990;BME280;41875;55.806;38.082;2022-12-07T02:01:54;100568.88;;;-8.90;51.83
55990;BME280;41875;55.806;38.082;2022-12-07T02:04:23;100571.59;;;-9.16;52.07
55990;BME280;41875;55.806;38.082;2022-12-07T02:06:53;100559.84;;;-9.73;53.49
55990;BME280;41875;55.806;38.082;2022-12-07T02:09:23;100563.19;;;-9.46;53.18
55990;BME280;41875;55.806;38.082;2022-12-07T02:11:54;100560.66;;;-9.59;53.31
55990;BME280;41875;55.806;38.082;2022-12-07T02:14:23;100555.34;;;-9.19;51.99
55990;BME280;41875;55.806;38.082;2022-12-07T02:17:00;100563.09;;;-9.32;52.74
55990;BME280;41875;55.806;38.082;2022-12-07T02:23:04;100553.84;;;-9.68;53.85
55990;BME280;41875;55.806;38.082;2022-12-07T02:25:58;100550.47;;;-9.77;53.60
55990;BME280;41875;55.806;38.082;2022-12-07T02:28:34;100543.47;;;-9.41;52.78
55990;BME280;41875;55.806;38.082;2022-12-07T02:31:10;100547.00;;;-9.64;53.45
55990;BME280;41875;55.806;38.082;2022-12-07T02:33:43;100545.34;;;-9.82;53.79
55990;BME280;41875;55.806;38.082;2022-12-07T02:36:16;100545.28;;;-9.63;53.36
55990;BME280;41875;55.806;38.082;2022-12-07T02:38:51;100538.28;;;-9.27;52.70
55990;BME280;41875;55.806;38.082;2022-12-07T02:41:27;100555.38;;;-9.22;52.51
55990;BME280;41875;55.806;38.082;2022-12-07T02:43:59;100540.88;;;-9.32;52.71
55990;BME280;41875;55.806;38.082;2022-12-07T02:46:33;100546.13;;;-9.68;53.48
55990;BME280;41875;55.806;38.082;2022-12-07T02:49:05;100544.34;;;-9.47;53.38
55990;BME280;41875;55.806;38.082;2022-12-07T02:51:39;100546.88;;;-9.35;53.33
55990;BME280;41875;55.806;38.082;2022-12-07T02:54:12;100538.38;;;-9.49;53.08
55990;BME280;41875;55.806;38.082;2022-12-07T02:56:48;100549.47;;;-9.41;53.01
55990;BME280;41875;55.806;38.082;2022-12-07T02:59:25;100540.94;;;-9.43;52.94
55990;BME280;41875;55.806;38.082;2022-12-07T03:02:09;100543.47;;;-9.38;52.75
55990;BME280;41875;55.806;38.082;2022-12-07T03:04:52;100536.75;;;-9.61;52.96
55990;BME280;41875;55.806;38.082;2022-12-07T03:07:32;100537.59;;;-9.62;53.54
55990;BME280;41875;55.806;38.082;2022-12-07T03:10:12;100536.66;;;-9.47;53.54
55990;BME280;41875;55.806;38.082;2022-12-07T03:12:46;100530.69;;;-9.52;53.30
55990;BME280;41875;55.806;38.082;2022-12-07T03:15:23;100528.25;;;-9.78;53.92
55990;BME280;41875;55.806;38.082;2022-12-07T03:17:57;100527.28;;;-9.56;53.37
55990;BME280;41875;55.806;38.082;2022-12-07T03:20:27;100532.44;;;-9.59;53.47
55990;BME280;41875;55.806;38.082;2022-12-07T03:22:57;100537.56;;;-9.59;53.74
55990;BME280;41875;55.806;38.082;2022-12-07T03:25:27;100529.88;;;-9.59;53.66
55990;BME280;41875;55.806;38.082;2022-12-07T03:28:01;100529.81;;;-9.45;53.20
55990;BME280;41875;55.806;38.082;2022-12-07T03:30:35;100532.34;;;-9.37;53.02
55990;BME280;41875;55.806;38.082;2022-12-07T03:33:11;100534.09;;;-9.45;52.86
55990;BME280;41875;55.806;38.082;2022-12-07T03:35:45;100535.81;;;-9.52;52.93
55990;BME280;41875;55.806;38.082;2022-12-07T03:38:19;100533.25;;;-9.46;53.12
55990;BME280;41875;55.806;38.082;2022-12-07T03:40:54;100538.31;;;-9.35;52.43
55990;BME280;41875;55.806;38.082;2022-12-07T03:43:27;100536.63;;;-9.38;52.74
55990;BME280;41875;55.806;38.082;2022-12-07T03:46:03;100535.88;;;-9.61;53.48
55990;BME280;41875;55.806;38.082;2022-12-07T03:48:41;100523.91;;;-9.64;53.13
55990;BME280;41875;55.806;38.082;2022-12-07T03:51:13;100535.81;;;-9.47;52.66
55990;BME280;41875;55.806;38.082;2022-12-07T03:53:46;100540.22;;;-9.90;53.77
55990;BME280;41875;55.806;38.082;2022-12-07T03:56:17;100534.22;;;-9.76;53.69
55990;BME280;41875;55.806;38.082;2022-12-07T03:58:47;100533.34;;;-9.74;53.95
55990;BME280;41875;55.806;38.082;2022-12-07T04:01:17;100538.44;;;-9.61;53.44
55990;BME280;41875;55.806;38.082;2022-12-07T04:03:47;100540.13;;;-9.54;53.57
55990;BME280;41875;55.806;38.082;2022-12-07T04:06:16;100530.69;;;-9.52;53.46
55990;BME280;41875;55.806;38.082;2022-12-07T04:08:44;100530.78;;;-9.75;53.65
55990;BME280;41875;55.806;38.082;2022-12-07T04:11:13;100532.53;;;-9.84;53.99
55990;BME280;41875;55.806;38.082;2022-12-07T04:13:42;100533.34;;;-9.69;53.55
55990;BME280;41875;55.806;38.082;2022-12-07T04:16:28;100541.91;;;-9.78;53.81
55990;BME280;41875;55.806;38.082;2022-12-07T04:18:58;100529.09;;;-9.81;53.92
55990;BME280;41875;55.806;38.082;2022-12-07T04:21:26;100526.53;;;-9.80;53.78
55990;BME280;41875;55.806;38.082;2022-12-07T04:23:55;100535.88;;;-9.63;53.51
55990;BME280;41875;55.806;38.082;2022-12-07T04:26:24;100529.88;;;-9.60;53.22
55990;BME280;41875;55.806;38.082;2022-12-07T04:28:52;100531.56;;;-9.58;53.25
55990;BME280;41875;55.806;38.082;2022-12-07T04:31:21;100533.31;;;-9.61;53.55
55990;BME280;41875;55.806;38.082;2022-12-07T04:33:49;100532.47;;;-9.62;53.33
55990;BME280;41875;55.806;38.082;2022-12-07T04:36:19;100526.44;;;-9.53;53.05
55990;BME280;41875;55.806;38.082;2022-12-07T04:38:48;100528.16;;;-9.58;53.32
55990;BME280;41875;55.806;38.082;2022-12-07T04:41:16;100530.75;;;-9.65;53.23
55990;BME280;41875;55.806;38.082;2022-12-07T04:43:45;100523.91;;;-9.62;53.42
55990;BME280;41875;55.806;38.082;2022-12-07T04:46:14;100525.56;;;-9.51;52.93
55990;BME280;41875;55.806;38.082;2022-12-07T04:48:42;100526.53;;;-9.72;53.09
55990;BME280;41875;55.806;38.082;2022-12-07T04:51:10;100527.34;;;-9.68;53.44
55990;BME280;41875;55.806;38.082;2022-12-07T04:53:42;100522.31;;;-9.98;54.49
55990;BME280;41875;55.806;38.082;2022-12-07T04:56:10;100523.97;;;-9.78;54.16
55990;BME280;41875;55.806;38.082;2022-12-07T04:58:39;100522.19;;;-9.67;53.27
55990;BME280;41875;55.806;38.082;2022-12-07T05:01:08;100517.97;;;-9.74;53.78
55990;BME280;41875;55.806;38.082;2022-12-07T05:03:36;100524.78;;;-9.65;53.48
55990;BME280;41875;55.806;38.082;2022-12-07T05:06:06;100519.69;;;-9.73;53.78
55990;BME280;41875;55.806;38.082;2022-12-07T05:08:39;100515.38;;;-9.68;53.40
55990;BME280;41875;55.806;38.082;2022-12-07T05:11:10;100519.69;;;-9.76;53.79
55990;BME280;41875;55.806;38.082;2022-12-07T05:14:00;100528.28;;;-9.86;53.87
55990;BME280;41875;55.806;38.082;2022-12-07T05:16:29;100532.53;;;-9.77;54.28
55990;BME280;41875;55.806;38.082;2022-12-07T05:18:59;100529.13;;;-9.83;54.12
55990;BME280;41875;55.806;38.082;2022-12-07T05:21:28;100517.16;;;-9.84;54.53
55990;BME280;41875;55.806;38.082;2022-12-07T05:23:56;100526.56;;;-9.87;54.17
55990;BME280;41875;55.806;38.082;2022-12-07T05:26:27;100516.31;;;-9.84;54.29
55990;BME280;41875;55.806;38.082;2022-12-07T05:28:56;100521.41;;;-9.83;54.65
55990;BME280;41875;55.806;38.082;2022-12-07T05:31:29;100515.47;;;-9.89;54.62
55990;BME280;41875;55.806;38.082;2022-12-07T05:33:58;100526.50;;;-9.73;54.33
55990;BME280;41875;55.806;38.082;2022-12-07T05:36:30;100527.31;;;-9.63;54.24
55990;BME280;41875;55.806;38.082;2022-12-07T05:38:59;100525.50;;;-9.38;53.57
55990;BME280;41875;55.806;38.082;2022-12-07T05:41:29;100535.91;;;-9.66;54.33
55990;BME280;41875;55.806;38.082;2022-12-07T05:44:15;100527.31;;;-9.57;54.04
55990;BME280;41875;55.806;38.082;2022-12-07T05:46:43;100535.81;;;-9.52;53.99
55990;BME280;41875;55.806;38.082;2022-12-07T05:49:12;100535.81;;;-9.47;54.08
55990;BME280;41875;55.806;38.082;2022-12-07T05:51:40;100530.66;;;-9.41;53.53
55990;BME280;41875;55.806;38.082;2022-12-07T05:54:09;100525.63;;;-9.63;54.12
55990;BME280;41875;55.806;38.082;2022-12-07T05:56:39;100524.69;;;-9.45;53.98
55990;BME280;41875;55.806;38.082;2022-12-07T05:59:08;100524.66;;;-9.39;53.68
55990;BME280;41875;55.806;38.082;2022-12-07T06:01:55;100525.56;;;-9.52;54.24
55990;BME280;41875;55.806;38.082;2022-12-07T06:04:25;100520.50;;;-9.66;54.21
55990;BME280;41875;55.806;38.082;2022-12-07T06:06:55;100529.84;;;-9.51;54.55
55990;BME280;41875;55.806;38.082;2022-12-07T06:09:25;100517.81;;;-9.41;54.50
55990;BME280;41875;55.806;38.082;2022-12-07T06:11:56;100516.19;;;-9.58;54.55
55990;BME280;41875;55.806;38.082;2022-12-07T06:14:42;100527.25;;;-9.48;54.49
55990;BME280;41875;55.806;38.082;2022-12-07T06:17:12;100521.25;;;-9.38;54.16
55990;BME280;41875;55.806;38.082;2022-12-07T06:19:41;100521.09;;;-9.14;53.99
55990;BME280;41875;55.806;38.082;2022-12-07T06:22:10;100527.16;;;-9.23;54.46
55990;BME280;41875;55.806;38.082;2022-12-07T06:24:39;100527.97;;;-9.16;54.14
55990;BME280;41875;55.806;38.082;2022-12-07T06:27:10;100530.53;;;-9.18;54.30
55990;BME280;41875;55.806;38.082;2022-12-07T06:29:38;100526.28;;;-9.24;54.19
55990;BME280;41875;55.806;38.082;2022-12-07T06:32:07;100532.09;;;-8.97;54.06
55990;BME280;41875;55.806;38.082;2022-12-07T06:34:36;100523.44;;;-8.83;53.65
55990;BME280;41875;55.806;38.082;2022-12-07T06:37:05;100519.19;;;-8.83;53.77
55990;BME280;41875;55.806;38.082;2022-12-07T06:39:33;100529.38;;;-8.72;53.39
55990;BME280;41875;55.806;38.082;2022-12-07T06:42:02;100516.78;;;-9.08;54.58
55990;BME280;41875;55.806;38.082;2022-12-07T06:44:31;100520.06;;;-8.85;54.03
55990;BME280;41875;55.806;38.082;2022-12-07T06:47:00;100519.84;;;-8.59;53.48
55990;BME280;41875;55.806;38.082;2022-12-07T06:49:49;100520.84;;;-8.74;53.86
55990;BME280;41875;55.806;38.082;2022-12-07T06:52:24;100518.31;;;-8.79;54.44
55990;BME280;41875;55.806;38.082;2022-12-07T06:56:17;100526.81;;;-8.77;54.89
55990;BME280;41875;55.806;38.082;2022-12-07T06:59:00;100523.31;;;-8.63;54.67
55990;BME280;41875;55.806;38.082;2022-12-07T07:01:30;100519.03;;;-8.63;54.74
55990;BME280;41875;55.806;38.082;2022-12-07T07:04:02;100520.69;;;-8.57;54.64
55990;BME280;41875;55.806;38.082;2022-12-07T07:06:34;100514.94;;;-7.98;53.45
55990;BME280;41875;55.806;38.082;2022-12-07T07:09:05;100513.59;;;-8.33;54.27
55990;BME280;41875;55.806;38.082;2022-12-07T07:11:33;100523.13;;;-8.46;54.19
55990;BME280;41875;55.806;38.082;2022-12-07T07:14:02;100512.41;;;-8.01;53.42
55990;BME280;41875;55.806;38.082;2022-12-07T07:16:50;100516.13;;;-8.29;54.44
55990;BME280;41875;55.806;38.082;2022-12-07T07:19:19;100506.78;;;-8.37;54.47
55990;BME280;41875;55.806;38.082;2022-12-07T07:21:48;100519.13;;;-7.88;54.00
55990;BME280;41875;55.806;38.082;2022-12-07T07:24:17;100515.91;;;-8.05;53.71
55990;BME280;41875;55.806;38.082;2022-12-07T07:26:45;100514.09;;;-7.99;53.96
55990;BME280;41875;55.806;38.082;2022-12-07T07:29:14;100511.97;;;-8.47;55.20
55990;BME280;41875;55.806;38.082;2022-12-07T07:31:42;100505.38;;;-7.85;54.21
55990;BME280;41875;55.806;38.082;2022-12-07T07:34:12;100516.19;;;-7.57;53.32
55990;BME280;41875;55.806;38.082;2022-12-07T07:36:40;100507.47;;;-7.48;52.79
55990;BME280;41875;55.806;38.082;2022-12-07T07:39:09;100506.47;;;-7.35;52.01
55990;BME280;41875;55.806;38.082;2022-12-07T07:41:41;100502.75;;;-7.13;52.14
55990;BME280;41875;55.806;38.082;2022-12-07T07:44:15;100504.91;;;-7.48;52.52
55990;BME280;41875;55.806;38.082;2022-12-07T07:46:49;100497.47;;;-7.71;52.90
55990;BME280;41875;55.806;38.082;2022-12-07T07:49:19;100503.59;;;-7.78;53.07
55990;BME280;41875;55.806;38.082;2022-12-07T07:51:47;100506.59;;;-7.44;53.02
55990;BME280;41875;55.806;38.082;2022-12-07T07:54:15;100499.88;;;-7.54;53.34
55990;BME280;41875;55.806;38.082;2022-12-07T07:56:44;100493.22;;;-7.08;52.26
55990;BME280;41875;55.806;38.082;2022-12-07T07:59:13;100504.75;;;-7.34;52.68
55990;BME280;41875;55.806;38.082;2022-12-07T08:01:42;100499.94;;;-6.99;51.51
55990;BME280;41875;55.806;38.082;2022-12-07T08:04:13;100497.34;;;-7.59;52.64
55990;BME280;41875;55.806;38.082;2022-12-07T08:06:44;100499.41;;;-7.87;53.75
55990;BME280;41875;55.806;38.082;2022-12-07T08:09:13;100506.22;;;-7.83;54.00
55990;BME280;41875;55.806;38.082;2022-12-07T08:11:43;100494.56;;;-7.42;53.13
55990;BME280;41875;55.806;38.082;2022-12-07T08:14:12;100496.41;;;-7.53;53.70
55990;BME280;41875;55.806;38.082;2022-12-07T08:16:41;100492.50;;;-7.18;52.68
55990;BME280;41875;55.806;38.082;2022-12-07T08:19:09;100496.03;;;-7.25;52.88
55990;BME280;41875;55.806;38.082;2022-12-07T08:21:38;100483.88;;;-6.59;51.21
55990;BME280;41875;55.806;38.082;2022-12-07T08:24:08;100478.50;;;-7.01;51.11
55990;BME280;41875;55.806;38.082;2022-12-07T08:26:37;100476.56;;;-7.43;52.44
55990;BME280;41875;55.806;38.082;2022-12-07T08:29:05;100481.97;;;-7.02;52.05
55990;BME280;41875;55.806;38.082;2022-12-07T08:31:34;100465.72;;;-7.67;52.74
55990;BME280;41875;55.806;38.082;2022-12-07T08:34:02;100466.38;;;-6.95;51.29
55990;BME280;41875;55.806;38.082;2022-12-07T08:36:31;100464.06;;;-7.10;51.20
55990;BME280;41875;55.806;38.082;2022-12-07T08:38:59;100469.69;;;-6.85;50.83
55990;BME280;41875;55.806;38.082;2022-12-07T08:41:49;100473.13;;;-6.86;50.79
55990;BME280;41875;55.806;38.082;2022-12-07T08:44:18;100470.47;;;-7.38;51.64
55990;BME280;41875;55.806;38.082;2022-12-07T08:46:48;100469.50;;;-6.74;50.87
55990;BME280;41875;55.806;38.082;2022-12-07T08:49:22;100481.75;;;-6.89;51.08
55990;BME280;41875;55.806;38.082;2022-12-07T08:51:51;100478.47;;;-6.98;50.95
55990;BME280;41875;55.806;38.082;2022-12-07T08:54:23;100472.56;;;-7.05;50.83
55990;BME280;41875;55.806;38.082;2022-12-07T08:57:25;100471.34;;;-7.39;51.99
55990;BME280;41875;55.806;38.082;2022-12-07T09:00:37;100471.03;;;-6.62;50.15
55990;BME280;41875;55.806;38.082;2022-12-07T09:03:21;100460.81;;;-6.20;48.75
55990;BME280;41875;55.806;38.082;2022-12-07T09:06:10;100461.56;;;-6.13;48.64
55990;BME280;41875;55.806;38.082;2022-12-07T09:08:41;100465.75;;;-6.07;48.44
55990;BME280;41875;55.806;38.082;2022-12-07T09:11:11;100457.28;;;-6.14;48.51
55990;BME280;41875;55.806;38.082;2022-12-07T09:13:41;100457.19;;;-6.09;48.39
55990;BME280;41875;55.806;38.082;2022-12-07T09:16:10;100460.59;;;-6.56;49.37
55990;BME280;41875;55.806;38.082;2022-12-07T09:18:38;100458.44;;;-5.87;48.26
55990;BME280;41875;55.806;38.082;2022-12-07T09:21:07;100448.41;;;-6.01;48.08
55990;BME280;41875;55.806;38.082;2022-12-07T09:23:36;100447.75;;;-6.57;49.23
55990;BME280;41875;55.806;38.082;2022-12-07T09:26:05;100439.56;;;-6.33;49.08
55990;BME280;41875;55.806;38.082;2022-12-07T09:28:37;100443.78;;;-6.29;48.47
55990;BME280;41875;55.806;38.082;2022-12-07T09:31:07;100441.03;;;-6.19;48.25
55990;BME280;41875;55.806;38.082;2022-12-07T09:33:55;100438.50;;;-6.21;47.85
55990;BME280;41875;55.806;38.082;2022-12-07T09:36:24;100437.47;;;-6.12;48.41
55990;BME280;41875;55.806;38.082;2022-12-07T09:38:55;100430.22;;;-6.37;47.88
55990;BME280;41875;55.806;38.082;2022-12-07T09:41:25;100424.91;;;-6.31;48.76
55990;BME280;41875;55.806;38.082;2022-12-07T09:44:06;100425.34;;;-6.52;49.24
55990;BME280;41875;55.806;38.082;2022-12-07T09:46:38;100422.91;;;-6.60;49.34
55990;BME280;41875;55.806;38.082;2022-12-07T09:49:12;100423.19;;;-5.88;47.89
55990;BME280;41875;55.806;38.082;2022-12-07T09:51:41;100416.31;;;-5.89;47.01
55990;BME280;41875;55.806;38.082;2022-12-07T09:54:13;100421.53;;;-5.92;47.26
55990;BME280;41875;55.806;38.082;2022-12-07T09:56:42;100408.31;;;-5.76;47.42
55990;BME280;41875;55.806;38.082;2022-12-07T09:59:15;100408.56;;;-6.30;48.12
55990;BME280;41875;55.806;38.082;2022-12-07T10:01:48;100412.59;;;-6.60;48.84
55990;BME280;41875;55.806;38.082;2022-12-07T10:04:19;100412.59;;;-6.15;48.06
55990;BME280;41875;55.806;38.082;2022-12-07T10:06:49;100395.28;;;-6.53;48.43
55990;BME280;41875;55.806;38.082;2022-12-07T10:09:20;100400.81;;;-6.28;48.57
55990;BME280;41875;55.806;38.082;2022-12-07T10:12:04;100403.19;;;-5.78;47.87
55990;BME280;41875;55.806;38.082;2022-12-07T10:14:34;100404.75;;;-5.33;46.28
55990;BME280;41875;55.806;38.082;2022-12-07T10:17:36;100402.41;;;-5.06;45.79
55990;BME280;41875;55.806;38.082;2022-12-07T10:20:17;100397.53;;;-5.95;47.10
55990;BME280;41875;55.806;38.082;2022-12-07T10:22:58;100402.44;;;-5.83;47.56
55990;BME280;41875;55.806;38.082;2022-12-07T10:25:29;100396.19;;;-6.12;48.09
55990;BME280;41875;55.806;38.082;2022-12-07T10:28:03;100406.41;;;-6.06;48.37
55990;BME280;41875;55.806;38.082;2022-12-07T10:30:51;100399.44;;;-6.02;47.90
55990;BME280;41875;55.806;38.082;2022-12-07T10:33:34;100387.69;;;-6.16;48.34
55990;BME280;41875;55.806;38.082;2022-12-07T10:36:17;100398.25;;;-5.89;47.70
55990;BME280;41875;55.806;38.082;2022-12-07T10:38:49;100388.31;;;-5.67;47.37
55990;BME280;41875;55.806;38.082;2022-12-07T10:41:18;100388.47;;;-6.12;47.33
55990;BME280;41875;55.806;38.082;2022-12-07T10:43:50;100375.41;;;-6.48;48.36
55990;BME280;41875;55.806;38.082;2022-12-07T10:46:49;100378.81;;;-6.02;48.34
55990;BME280;41875;55.806;38.082;2022-12-07T10:52:45;100388.06;;;-5.95;47.62
55990;BME280;41875;55.806;38.082;2022-12-07T10:55:22;100376.47;;;-6.15;47.82
55990;BME280;41875;55.806;38.082;2022-12-07T10:58:04;100364.78;;;-6.31;48.10
55990;BME280;41875;55.806;38.082;2022-12-07T11:00:41;100372.66;;;-5.98;47.93
55990;BME280;41875;55.806;38.082;2022-12-07T11:03:28;100368.31;;;-6.37;48.32
55990;BME280;41875;55.806;38.082;2022-12-07T11:06:09;100374.19;;;-5.89;47.98
55990;BME280;41875;55.806;38.082;2022-12-07T11:08:46;100367.88;;;-6.14;47.72
55990;BME280;41875;55.806;38.082;2022-12-07T11:11:24;100361.22;;;-6.25;48.05
55990;BME280;41875;55.806;38.082;2022-12-07T11:14:00;100370.75;;;-6.31;48.02
55990;BME280;41875;55.806;38.082;2022-12-07T11:16:48;100368.91;;;-6.22;48.42
55990;BME280;41875;55.806;38.082;2022-12-07T11:22:31;100360.44;;;-5.90;47.67
55990;BME280;41875;55.806;38.082;2022-12-07T11:25:15;100352.13;;;-6.03;47.95
55990;BME280;41875;55.806;38.082;2022-12-07T11:28:04;100362.44;;;-6.01;47.95
55990;BME280;41875;55.806;38.082;2022-12-07T11:30:43;100345.44;;;-6.54;48.90
55990;BME280;41875;55.806;38.082;2022-12-07T11:33:19;100351.50;;;-6.13;48.23
55990;BME280;41875;55.806;38.082;2022-12-07T11:36:00;100344.50;;;-6.07;48.24
55990;BME280;41875;55.806;38.082;2022-12-07T11:38:37;100351.47;;;-5.73;47.30
55990;BME280;41875;55.806;38.082;2022-12-07T11:41:10;100353.19;;;-6.12;48.01
55990;BME280;41875;55.806;38.082;2022-12-07T11:43:52;100329.66;;;-5.98;48.03
55990;BME280;41875;55.806;38.082;2022-12-07T11:46:25;100338.56;;;-6.53;48.69
55990;BME280;41875;55.806;38.082;2022-12-07T11:48:58;100345.31;;;-6.05;47.83
55990;BME280;41875;55.806;38.082;2022-12-07T11:51:33;100331.78;;;-6.57;49.08
55990;BME280;41875;55.806;38.082;2022-12-07T11:54:12;100331.22;;;-6.74;49.46
55990;BME280;41875;55.806;38.082;2022-12-07T11:56:43;100333.97;;;-6.83;49.72
55990;BME280;41875;55.806;38.082;2022-12-07T11:59:19;100335.03;;;-6.49;49.10
55990;BME280;41875;55.806;38.082;2022-12-07T12:01:53;100333.25;;;-6.03;48.22
55990;BME280;41875;55.806;38.082;2022-12-07T12:04:44;100308.09;;;-6.34;48.99
55990;BME280;41875;55.806;38.082;2022-12-07T12:07:18;100327.09;;;-6.38;48.95
55990;BME280;41875;55.806;38.082;2022-12-07T12:10:18;100322.47;;;-6.22;48.47
55990;BME280;41875;55.806;38.082;2022-12-07T12:13:18;100309.41;;;-7.02;50.55
55990;BME280;41875;55.806;38.082;2022-12-07T12:16:23;100314.41;;;-6.49;49.33
55990;BME280;41875;55.806;38.082;2022-12-07T12:19:19;100295.78;;;-7.09;50.36
55990;BME280;41875;55.806;38.082;2022-12-07T12:21:55;100318.31;;;-6.72;49.75
55990;BME280;41875;55.806;38.082;2022-12-07T12:24:26;100318.94;;;-6.59;49.80
55990;BME280;41875;55.806;38.082;2022-12-07T12:27:02;100293.13;;;-7.03;50.01
55990;BME280;41875;55.806;38.082;2022-12-07T12:29:34;100306.69;;;-6.95;50.09
55990;BME280;41875;55.806;38.082;2022-12-07T12:32:22;100304.09;;;-6.93;50.39
55990;BME280;41875;55.806;38.082;2022-12-07T12:35:01;100307.34;;;-6.83;50.29
55990;BME280;41875;55.806;38.082;2022-12-07T12:37:43;100298.50;;;-7.15;50.82
55990;BME280;41875;55.806;38.082;2022-12-07T12:40:41;100299.00;;;-6.96;50.75
55990;BME280;41875;55.806;38.082;2022-12-07T12:43:49;100285.19;;;-7.41;51.51
55990;BME280;41875;55.806;38.082;2022-12-07T12:46:46;100305.88;;;-7.47;52.03
55990;BME280;41875;55.806;38.082;2022-12-07T12:49:37;100313.28;;;-7.28;51.61
55990;BME280;41875;55.806;38.082;2022-12-07T12:55:20;100304.47;;;-7.13;51.28
55990;BME280;41875;55.806;38.082;2022-12-07T13:04:29;100296.63;;;-7.57;52.15
55990;BME280;41875;55.806;38.082;2022-12-07T13:07:03;100283.59;;;-7.48;52.09
55990;BME280;41875;55.806;38.082;2022-12-07T13:09:34;100289.50;;;-7.41;51.80
55990;BME280;41875;55.806;38.082;2022-12-07T13:12:11;100285.94;;;-7.34;51.46
55990;BME280;41875;55.806;38.082;2022-12-07T13:14:51;100293.25;;;-7.61;52.46
55990;BME280;41875;55.806;38.082;2022-12-07T13:17:55;100296.53;;;-7.51;52.13
55990;BME280;41875;55.806;38.082;2022-12-07T13:20:58;100293.44;;;-7.73;52.87
55990;BME280;41875;55.806;38.082;2022-12-07T13:23:31;100289.88;;;-7.64;52.45
55990;BME280;41875;55.806;38.082;2022-12-07T13:26:08;100301.47;;;-7.95;53.34
55990;BME280;41875;55.806;38.082;2022-12-07T13:28:45;100300.09;;;-7.61;52.79
55990;BME280;41875;55.806;38.082;2022-12-07T13:31:30;100296.03;;;-7.75;52.61
55990;BME280;41875;55.806;38.082;2022-12-07T13:34:01;100283.91;;;-8.26;53.83
55990;BME280;41875;55.806;38.082;2022-12-07T13:36:33;100284.97;;;-7.80;52.93